createdAt,value
2023-03-11T00:00:37.916Z,6.4
2023-03-11T00:20:37.907Z,6.38
2023-03-11T00:40:37.626Z,6.38
2023-03-11T01:00:37.898Z,6.37
2023-03-11T01:20:37.912Z,6.36
2023-03-11T01:40:37.892Z,6.34
2023-03-11T02:00:37.889Z,6.32
2023-03-11T02:20:37.624Z,6.3
2023-03-11T02:40:37.888Z,6.28
2023-03-11T03:00:37.615Z,6.27
2023-03-11T03:20:37.853Z,6.27
2023-03-11T03:40:37.841Z,6.25
2023-03-11T04:00:37.878Z,6.24
2023-03-11T04:20:37.852Z,6.22
2023-03-11T04:40:37.865Z,6.2
2023-03-11T05:00:37.836Z,6.18
2023-03-11T05:40:37.841Z,6.17
2023-03-11T06:00:37.845Z,6.16
2023-03-11T06:40:37.848Z,6.13
2023-03-11T07:00:37.848Z,6.11
2023-03-11T07:20:37.831Z,6.1
2023-03-11T07:40:37.837Z,6.08
2023-03-11T08:00:37.814Z,6.07
2023-03-11T08:20:37.542Z,6.06
2023-03-11T08:40:37.781Z,6.05
2023-03-11T09:20:37.780Z,6.02
2023-03-11T09:40:37.454Z,6
2023-03-11T10:00:37.722Z,5.98
2023-03-11T10:40:37.668Z,5.96
2023-03-11T11:20:37.610Z,5.95
2023-03-11T11:40:37.589Z,5.94
2023-03-11T12:00:37.274Z,5.94
2023-03-11T12:20:37.531Z,5.93
2023-03-11T12:40:37.491Z,5.93
2023-03-11T13:00:37.465Z,5.92
2023-03-11T13:20:37.463Z,5.92
2023-03-11T13:40:37.415Z,5.92
2023-03-11T14:00:37.425Z,5.92
2023-03-11T14:20:37.392Z,5.92
2023-03-11T14:40:37.287Z,5.92
2023-03-11T15:00:37.327Z,5.93
2023-03-11T15:20:37.382Z,5.94
2023-03-11T15:40:45.239Z,5.94
2023-03-11T16:00:37.198Z,5.95
2023-03-11T16:20:37.168Z,5.95
2023-03-11T16:40:37.138Z,5.96
2023-03-11T17:00:37.142Z,5.96
2023-03-11T17:20:37.134Z,5.97
2023-03-11T17:40:37.128Z,5.98
2023-03-11T18:00:37.108Z,6
2023-03-11T18:20:37.105Z,6.01
2023-03-11T18:40:37.100Z,6.03
2023-03-11T19:00:37.119Z,6.04
2023-03-11T19:20:37.108Z,6.04
2023-03-11T19:40:37.101Z,6.05
2023-03-11T20:00:37.124Z,6.05
2023-03-11T20:20:37.144Z,6.06
2023-03-11T20:40:37.143Z,6.06
2023-03-11T21:20:37.150Z,6.06
2023-03-11T21:40:37.199Z,6.06
2023-03-11T22:00:37.360Z,6.06
2023-03-11T22:20:37.176Z,6.06
2023-03-11T22:40:37.143Z,6.05
2023-03-11T23:00:37.151Z,6.05
2023-03-11T23:20:37.142Z,6.04
2023-03-11T23:40:37.130Z,6.04
